CheckWX is a tool to help pilots better visualize weather data.  It is not intended as a substitute for an official pre-flight weather briefing.

22:52:19 UTC

KDAA METAR
Davison AAF Airport
Fort Belvoir, Virginia, USA
Current

56 mins ago

KDAA 012156Z AUTO 35004KT 10SM BKN070 14/03 A2980 RMK AO2 SLP094 T01350030 $
Observed
Apr-1 @ 21:56 UTC
Wind
  • 350° at 4 KTS
Visibility
10 SM
Flight Rules
VFR
Cloud Levels
  • Broken at 7,000' AGL
Temperature
14°C / 57°F
Dewpoint
C / 37°F
Humidity
48%
Altimeter
29.8" Hg
Pressure
1009.12 hPa
Previous

2 hours ago

KDAA 012056Z AUTO 35008KT 10SM SCT043 SCT065 13/02 A2980 RMK AO2 SLP094 T01290024 57011 $
Observed
Apr-1 @ 20:56 UTC
Wind
  • 350° at 8 KTS
Visibility
10 SM
Flight Rules
VFR
Cloud Levels
  • Scattered at 4,300' AGL
  • Scattered at 6,500' AGL
Temperature
13°C / 55°F
Dewpoint
C / 36°F
Humidity
47%
Altimeter
29.8" Hg
Pressure
1009.12 hPa
Previous

3 hours ago

KDAA 011956Z AUTO 33009KT 10SM OVC060 11/02 A2982 RMK AO2 SLP101 T01140024 $
Observed
Apr-1 @ 19:56 UTC
Wind
  • 330° at 9 KTS
Visibility
10 SM
Flight Rules
VFR
Cloud Levels
  • Overcast at 6,000' AGL
Temperature
11°C / 52°F
Dewpoint
C / 36°F
Humidity
54%
Altimeter
29.82" Hg
Pressure
1009.82 hPa